Airfield :
LOGIN :

Register | Disclaimer

   EN    FR    IT 

 










Legend :    VFR   Marginal VFR   IFR   Intensive IFR   Very Intensive IFR
Visi :
Ceiling :
>= 8 km
>= 3000ft
5 to 8 km
1000 to 3000 ft
1500m to 5 km
500 to 1000 ft
800 to 1500m
200 to 500 ft
< 800m
< 200 ft
Symbols :   Thunderstorms  Fog  Heavy snow  Heavy precipitations  Wind > 20 kt
SIGMETs :     Misc.  Thunderstorms  Icing  Turbulence  Mountain Waves  Volcanic Ashes






- Airport Elevation : 1860 ft
- IATA code : GRX


LEGR - Granada

CURRENT METAR :
  • 071630Z 28008KT 210V340 9999 FEW070 30/08 Q1017

EXPIRED METARs :
  • 071600Z 24003KT 150V310 9999 FEW070 30/06 Q1017
  • 071530Z 32006KT 220V020 9999 FEW070 29/04 Q1017
  • 071500Z VRB05KT 9999 FEW070 29/03 Q1017
  • 071430Z VRB04KT 9999 FEW070 30/02 Q1018
  • 071400Z 30005KT 250V350 9999 FEW070 29/M01 Q1018

TAF TAF LEGR
Valid from the 07 at 12:00 until the 08 at 12:00 UTC


071100Z 0712/0812 VRB02KT CAVOK TX30/0715Z TN09/0806Z
TEMPO 0716/0720 24010KT
BECMG 0808/0810 16010KT



MET'MAP, your aeronautical weather chart ! - Copyright ORBIFLY December 2007 - Disclaimer

ORBIFLY MET'MAP TEAM :

Programming & Development : Alexandra Zaïnal
Concept & original design : Baudouin d'Aumeries
Assistance for programming : Marc-Olivier Méhu
Technical & hardware support : Manuel Goepfert

Contact : metmap@orbifly.com




SOURCES & CREDITS :

   NOAA